createdAt,value
2023-04-15T00:00:00.895Z,23.16
2023-04-15T00:01:00.870Z,23.16
2023-04-15T00:02:00.976Z,23.16
2023-04-15T00:03:00.975Z,23.16
2023-04-15T00:04:00.933Z,23.16
2023-04-15T00:05:00.843Z,23.16
2023-04-15T00:06:00.841Z,23.16
2023-04-15T00:07:00.816Z,23.16
2023-04-15T00:08:00.830Z,23.16
2023-04-15T00:09:01.137Z,23.15
2023-04-15T00:10:00.854Z,23.16
2023-04-15T00:11:00.871Z,23.15
2023-04-15T00:12:00.879Z,23.15
2023-04-15T00:13:00.898Z,23.15
2023-04-15T00:14:00.941Z,23.14
2023-04-15T00:15:00.944Z,23.16
2023-04-15T00:16:00.987Z,23.15
2023-04-15T00:17:01.050Z,23.15
2023-04-15T00:18:01.090Z,23.15
2023-04-15T00:19:01.271Z,23.15
2023-04-15T00:20:01.047Z,23.15
2023-04-15T00:21:01.098Z,23.15
2023-04-15T00:22:01.180Z,23.15
2023-04-15T00:23:01.115Z,23.15
2023-04-15T00:24:01.143Z,23.15
2023-04-15T00:25:01.185Z,23.15
2023-04-15T00:26:01.186Z,23.15
2023-04-15T00:27:01.223Z,23.14
2023-04-15T00:28:01.223Z,23.14
2023-04-15T00:29:01.540Z,23.15
2023-04-15T00:30:01.297Z,23.14
2023-04-15T00:31:01.312Z,23.14
2023-04-15T00:32:01.377Z,23.14
2023-04-15T00:33:01.402Z,23.14
2023-04-15T00:34:01.367Z,23.15
2023-04-15T00:35:01.374Z,23.15
2023-04-15T00:36:01.399Z,23.14
2023-04-15T00:37:01.418Z,23.15
2023-04-15T00:38:01.483Z,23.14
2023-04-15T00:39:01.641Z,23.14
2023-04-15T00:40:01.745Z,23.15
2023-04-15T00:41:01.505Z,23.15
2023-04-15T00:42:01.536Z,23.15
2023-04-15T00:43:01.561Z,23.14
2023-04-15T00:44:01.577Z,23.15
2023-04-15T00:45:01.603Z,23.14
2023-04-15T00:46:01.639Z,23.15
2023-04-15T00:47:01.626Z,23.15
2023-04-15T00:48:01.667Z,23.14
2023-04-15T00:49:01.873Z,23.14
2023-04-15T00:50:01.738Z,23.15
2023-04-15T00:51:01.724Z,23.15
2023-04-15T00:52:01.728Z,23.14
2023-04-15T00:53:01.762Z,23.15
2023-04-15T00:54:01.783Z,23.14
2023-04-15T00:55:01.894Z,23.14
2023-04-15T00:56:01.823Z,23.13
2023-04-15T00:57:01.975Z,23.14
2023-04-15T00:58:01.864Z,23.14
2023-04-15T00:59:02.109Z,23.14
2023-04-15T01:00:01.905Z,23.14
2023-04-15T01:01:01.969Z,23.13
2023-04-15T01:02:01.988Z,23.14
2023-04-15T01:03:02.177Z,23.13
2023-04-15T01:04:02.148Z,23.13
2023-04-15T01:05:01.998Z,23.14
2023-04-15T01:06:03.889Z,23.13
2023-04-15T01:07:02.050Z,23.12
2023-04-15T01:08:02.044Z,23.13
2023-04-15T01:09:02.256Z,23.12
2023-04-15T01:10:02.159Z,23.13
2023-04-15T01:11:02.156Z,23.12
2023-04-15T01:12:02.123Z,23.12
2023-04-15T01:13:02.163Z,23.12
2023-04-15T01:14:02.176Z,23.12
2023-04-15T01:15:02.232Z,23.12
2023-04-15T01:16:02.287Z,23.12
2023-04-15T01:17:02.252Z,23.12
2023-04-15T01:18:02.303Z,23.12
2023-04-15T01:19:02.630Z,23.12
2023-04-15T01:20:02.277Z,23.11
2023-04-15T01:21:02.302Z,23.10
2023-04-15T01:22:02.320Z,23.11
2023-04-15T01:23:02.359Z,23.11
2023-04-15T01:24:02.375Z,23.11
2023-04-15T01:25:02.442Z,23.11
2023-04-15T01:26:02.437Z,23.11
2023-04-15T01:27:02.457Z,23.10
2023-04-15T01:28:02.464Z,23.10
2023-04-15T01:29:02.732Z,23.10
2023-04-15T01:30:02.531Z,23.10
2023-04-15T01:31:02.569Z,23.11
2023-04-15T01:32:02.550Z,23.10
2023-04-15T01:33:02.609Z,23.10
2023-04-15T01:34:02.610Z,23.10
2023-04-15T01:35:02.637Z,23.09
2023-04-15T01:36:02.648Z,23.10
2023-04-15T01:37:02.670Z,23.10
2023-04-15T01:38:02.704Z,23.09
2023-04-15T01:39:02.851Z,23.10
2023-04-15T01:40:02.738Z,23.09
2023-04-15T01:41:02.747Z,23.09
2023-04-15T01:42:02.801Z,23.09
2023-04-15T01:43:02.798Z,23.10
2023-04-15T01:44:02.816Z,23.09
2023-04-15T01:45:02.841Z,23.09
2023-04-15T01:46:02.848Z,23.09
2023-04-15T01:47:02.920Z,23.09
2023-04-15T01:48:02.922Z,23.10
2023-04-15T01:49:03.010Z,23.09
2023-04-15T01:50:02.951Z,23.08
2023-04-15T01:51:02.972Z,23.09
2023-04-15T01:52:02.982Z,23.08
2023-04-15T01:53:03.014Z,23.09
2023-04-15T01:54:03.029Z,23.09
2023-04-15T01:55:03.042Z,23.09
2023-04-15T01:56:03.059Z,23.08
2023-04-15T01:57:03.117Z,23.08
2023-04-15T01:58:03.123Z,23.08
2023-04-15T01:59:03.186Z,23.08
2023-04-15T02:00:03.224Z,23.08
2023-04-15T02:01:03.314Z,23.08
2023-04-15T02:02:03.227Z,23.07
2023-04-15T02:03:03.377Z,23.08
2023-04-15T02:04:03.341Z,23.08
2023-04-15T02:05:03.263Z,23.07
2023-04-15T02:06:03.301Z,23.08
2023-04-15T02:07:03.325Z,23.07
2023-04-15T02:08:03.321Z,23.07
2023-04-15T02:09:03.462Z,23.07
2023-04-15T02:10:03.381Z,23.07
2023-04-15T02:11:03.415Z,23.07
2023-04-15T02:12:03.416Z,23.07
2023-04-15T02:13:03.442Z,23.06
2023-04-15T02:14:03.474Z,23.07
2023-04-15T02:15:03.501Z,23.07
2023-04-15T02:16:03.614Z,23.07
2023-04-15T02:17:03.555Z,23.07
2023-04-15T02:18:03.611Z,23.07
2023-04-15T02:19:03.594Z,23.07
2023-04-15T02:20:03.622Z,23.06
2023-04-15T02:21:03.621Z,23.06
2023-04-15T02:22:03.651Z,23.06
2023-04-15T02:23:03.669Z,23.06
2023-04-15T02:24:03.702Z,23.06
2023-04-15T02:25:03.722Z,23.06
2023-04-15T02:26:03.739Z,23.06
2023-04-15T02:27:03.778Z,23.06
2023-04-15T02:28:03.780Z,23.06
2023-04-15T02:29:03.809Z,23.05
2023-04-15T02:30:03.850Z,23.05
2023-04-15T02:31:03.846Z,23.05
2023-04-15T02:32:03.926Z,23.05
2023-04-15T02:33:03.930Z,23.05
2023-04-15T02:34:03.936Z,23.04
2023-04-15T02:35:03.988Z,23.05
2023-04-15T02:36:03.982Z,23.05
2023-04-15T02:37:04.045Z,23.04
2023-04-15T02:38:04.005Z,23.05
2023-04-15T02:39:04.227Z,23.04
2023-04-15T02:40:04.101Z,23.04
2023-04-15T02:41:04.086Z,23.04
2023-04-15T02:42:04.140Z,23.04
2023-04-15T02:43:04.136Z,23.04
2023-04-15T02:44:04.158Z,23.03
2023-04-15T02:45:04.180Z,23.04
2023-04-15T02:46:04.228Z,23.04
2023-04-15T02:47:04.237Z,23.04
2023-04-15T02:48:04.255Z,23.03
2023-04-15T02:49:04.265Z,23.04
2023-04-15T02:50:04.316Z,23.03
2023-04-15T02:51:04.323Z,23.03
2023-04-15T02:52:04.334Z,23.03
2023-04-15T02:53:04.359Z,23.03
2023-04-15T02:54:04.391Z,23.04
2023-04-15T02:55:04.417Z,23.03
2023-04-15T02:56:04.445Z,23.03
2023-04-15T02:57:04.459Z,23.03
2023-04-15T02:58:04.497Z,23.03
2023-04-15T02:59:04.524Z,23.03
2023-04-15T03:00:04.553Z,23.04
2023-04-15T03:01:04.570Z,23.02
2023-04-15T03:02:04.676Z,23.03
2023-04-15T03:03:04.855Z,23.03
2023-04-15T03:04:04.756Z,23.02
2023-04-15T03:05:04.688Z,23.03
2023-04-15T03:06:04.701Z,23.02
2023-04-15T03:07:04.707Z,23.03
2023-04-15T03:08:04.735Z,23.02
2023-04-15T03:09:04.770Z,23.03
2023-04-15T03:10:04.824Z,23.02
2023-04-15T03:11:04.818Z,23.02
2023-04-15T03:12:04.849Z,23.02
2023-04-15T03:13:04.883Z,23.02
2023-04-15T03:14:04.906Z,23.02
2023-04-15T03:15:04.923Z,23.02
2023-04-15T03:16:04.946Z,23.01
2023-04-15T03:17:04.961Z,23.02
2023-04-15T03:18:05.012Z,23.01
2023-04-15T03:19:05.019Z,23.02
2023-04-15T03:20:05.072Z,23.02
2023-04-15T03:21:05.073Z,23.01
2023-04-15T03:22:05.070Z,23.02
2023-04-15T03:23:05.104Z,23.02
2023-04-15T03:24:05.129Z,23.01
2023-04-15T03:25:05.153Z,23.01
2023-04-15T03:26:05.171Z,23.02
2023-04-15T03:27:05.195Z,23.02
2023-04-15T03:28:05.214Z,23.02
2023-04-15T03:29:05.232Z,23.02
2023-04-15T03:30:05.268Z,23.01
2023-04-15T03:31:05.271Z,23.02
2023-04-15T03:32:05.285Z,23.01
2023-04-15T03:33:05.310Z,23.02
2023-04-15T03:34:05.338Z,23.01
2023-04-15T03:35:05.377Z,23.01
2023-04-15T03:36:05.414Z,23.01
2023-04-15T03:37:05.410Z,23.01
2023-04-15T03:38:05.440Z,23.01
2023-04-15T03:39:05.466Z,23.01
2023-04-15T03:40:05.536Z,23.01
2023-04-15T03:41:05.513Z,23.00
2023-04-15T03:42:05.557Z,23.00
2023-04-15T03:43:05.578Z,23.00
2023-04-15T03:44:05.584Z,23.00
2023-04-15T03:45:05.605Z,23.00
2023-04-15T03:46:05.665Z,23.00
2023-04-15T03:47:05.658Z,23.00
2023-04-15T03:48:16.693Z,23.00
2023-04-15T03:49:06.701Z,23.00
2023-04-15T03:50:05.664Z,23.00
2023-04-15T03:51:05.671Z,23.00
2023-04-15T03:52:05.669Z,23.00
2023-04-15T03:53:05.662Z,22.99
2023-04-15T03:54:05.663Z,22.99
2023-04-15T03:55:05.633Z,23.00
2023-04-15T03:56:05.640Z,22.99
2023-04-15T03:57:05.646Z,22.99
2023-04-15T03:58:05.628Z,22.99
2023-04-15T03:59:05.602Z,22.99
2023-04-15T04:00:05.615Z,22.99
2023-04-15T04:01:05.592Z,22.99
2023-04-15T04:02:05.740Z,22.99
2023-04-15T04:03:05.725Z,22.99
2023-04-15T04:04:05.663Z,22.99
2023-04-15T04:05:05.636Z,22.98
2023-04-15T04:06:05.643Z,22.99
2023-04-15T04:07:05.689Z,22.98
2023-04-15T04:08:05.707Z,22.98
2023-04-15T04:09:05.723Z,22.98
2023-04-15T04:10:05.762Z,22.98
2023-04-15T04:11:05.785Z,22.99
2023-04-15T04:12:05.816Z,22.98
2023-04-15T04:13:05.839Z,22.99
2023-04-15T04:14:05.854Z,22.98
2023-04-15T04:15:05.894Z,22.99
2023-04-15T04:16:06.055Z,22.99
2023-04-15T04:17:06.105Z,22.99
2023-04-15T04:18:05.971Z,22.99
2023-04-15T04:19:05.986Z,22.99
2023-04-15T04:20:06.026Z,22.99
2023-04-15T04:21:06.048Z,22.99
2023-04-15T04:22:06.078Z,22.99
2023-04-15T04:23:06.113Z,22.99
2023-04-15T04:24:06.143Z,22.98
2023-04-15T04:25:06.163Z,22.99
2023-04-15T04:26:06.192Z,22.99
2023-04-15T04:27:06.249Z,22.98
2023-04-15T04:28:06.261Z,22.98
2023-04-15T04:29:06.307Z,22.98
2023-04-15T04:30:06.321Z,22.98
2023-04-15T04:31:06.352Z,22.98
2023-04-15T04:32:06.455Z,22.98
2023-04-15T04:33:06.450Z,22.98
2023-04-15T04:34:06.452Z,22.98
2023-04-15T04:35:06.496Z,22.98
2023-04-15T04:36:06.554Z,22.98
2023-04-15T04:37:06.567Z,22.98
2023-04-15T04:38:06.614Z,22.98
2023-04-15T04:39:06.641Z,22.97
2023-04-15T04:40:06.683Z,22.97
2023-04-15T04:41:06.695Z,22.98
2023-04-15T04:42:06.744Z,22.98
2023-04-15T04:43:06.777Z,22.98
2023-04-15T04:44:06.804Z,22.97
2023-04-15T04:45:06.824Z,22.98
2023-04-15T04:46:06.920Z,22.97
2023-04-15T04:47:06.884Z,22.97
2023-04-15T04:48:07.189Z,22.98
2023-04-15T04:49:06.964Z,22.97
2023-04-15T04:50:06.998Z,22.97
2023-04-15T04:51:07.026Z,22.98
2023-04-15T04:52:07.043Z,22.97
2023-04-15T04:53:07.062Z,22.97
2023-04-15T04:54:07.097Z,22.97
2023-04-15T04:55:07.143Z,22.97
2023-04-15T04:56:07.168Z,22.97
2023-04-15T04:57:07.221Z,22.98
2023-04-15T04:58:07.242Z,22.98
2023-04-15T04:59:07.294Z,22.98
2023-04-15T05:00:07.297Z,22.98
2023-04-15T05:01:07.401Z,22.97
2023-04-15T05:02:07.418Z,22.98
2023-04-15T05:03:07.545Z,22.97
2023-04-15T05:04:07.532Z,22.98
2023-04-15T05:05:07.484Z,22.97
2023-04-15T05:06:07.523Z,22.97
2023-04-15T05:07:07.548Z,22.97
2023-04-15T05:08:07.588Z,22.97
2023-04-15T05:09:07.599Z,22.97
2023-04-15T05:10:07.651Z,22.98
2023-04-15T05:11:07.688Z,22.98
2023-04-15T05:12:07.680Z,22.98
2023-04-15T05:13:07.733Z,22.98
2023-04-15T05:14:07.758Z,22.99
2023-04-15T05:15:07.786Z,22.98
2023-04-15T05:16:07.891Z,22.98
2023-04-15T05:17:07.839Z,22.98
2023-04-15T05:18:07.897Z,22.99
2023-04-15T05:19:07.910Z,22.98
2023-04-15T05:20:07.947Z,22.99
2023-04-15T05:21:07.989Z,22.99
2023-04-15T05:22:08.017Z,22.99
2023-04-15T05:23:08.026Z,22.99
2023-04-15T05:24:08.079Z,22.99
2023-04-15T05:25:08.095Z,23.00
2023-04-15T05:26:08.139Z,23.00
2023-04-15T05:27:08.141Z,23.00
2023-04-15T05:28:08.172Z,23.00
2023-04-15T05:29:08.213Z,22.99
2023-04-15T05:30:08.262Z,22.99
2023-04-15T05:31:08.309Z,23.00
2023-04-15T05:32:08.305Z,23.00
2023-04-15T05:33:08.324Z,23.00
2023-04-15T05:34:08.369Z,23.00
2023-04-15T05:35:08.404Z,23.01
2023-04-15T05:36:08.436Z,23.01
2023-04-15T05:37:08.480Z,23.01
2023-04-15T05:38:08.479Z,23.01
2023-04-15T05:39:08.522Z,23.01
2023-04-15T05:40:08.556Z,23.01
2023-04-15T05:41:08.572Z,23.01
2023-04-15T05:42:08.716Z,23.02
2023-04-15T05:43:08.649Z,23.02
2023-04-15T05:44:08.688Z,23.02
2023-04-15T05:45:08.683Z,23.02
2023-04-15T05:46:08.804Z,23.03
2023-04-15T05:47:08.764Z,23.03
2023-04-15T05:48:08.771Z,23.02
2023-04-15T05:49:08.828Z,23.03
2023-04-15T05:50:08.819Z,23.03
2023-04-15T05:51:08.862Z,23.04
2023-04-15T05:52:08.869Z,23.04
2023-04-15T05:53:08.913Z,23.05
2023-04-15T05:54:08.914Z,23.04
2023-04-15T05:55:08.960Z,23.04
2023-04-15T05:56:09.007Z,23.04
2023-04-15T05:57:09.049Z,23.04
2023-04-15T05:58:09.014Z,23.04
2023-04-15T05:59:09.057Z,23.05
2023-04-15T06:00:09.070Z,23.04
2023-04-15T06:01:09.128Z,23.04
2023-04-15T06:02:09.173Z,23.04
2023-04-15T06:03:09.213Z,23.04
2023-04-15T06:04:09.280Z,23.04
2023-04-15T06:05:09.450Z,23.04
2023-04-15T06:06:09.261Z,23.05
2023-04-15T06:07:09.271Z,23.04
2023-04-15T06:08:09.292Z,23.05
2023-04-15T06:09:09.334Z,23.04
2023-04-15T06:10:09.346Z,23.05
2023-04-15T06:11:09.371Z,23.04
2023-04-15T06:12:09.416Z,23.05
2023-04-15T06:13:09.433Z,23.04
2023-04-15T06:14:09.426Z,23.04
2023-04-15T06:15:09.466Z,23.04
2023-04-15T06:16:09.511Z,23.05
2023-04-15T06:17:09.501Z,23.04
2023-04-15T06:18:09.549Z,23.04
2023-04-15T06:19:09.712Z,23.05
2023-04-15T06:20:09.622Z,23.04
2023-04-15T06:21:09.639Z,23.05
2023-04-15T06:22:09.635Z,23.05
2023-04-15T06:23:09.646Z,23.05
2023-04-15T06:24:09.684Z,23.05
2023-04-15T06:25:09.718Z,23.06
2023-04-15T06:26:09.733Z,23.06
2023-04-15T06:27:09.749Z,23.07
2023-04-15T06:28:09.765Z,23.07
2023-04-15T06:29:09.796Z,23.07
2023-04-15T06:30:09.834Z,23.08
2023-04-15T06:31:09.866Z,23.08
2023-04-15T06:32:09.889Z,23.09
2023-04-15T06:33:09.896Z,23.09
2023-04-15T06:34:09.924Z,23.10
2023-04-15T06:35:09.939Z,23.11
2023-04-15T06:36:09.957Z,23.10
2023-04-15T06:37:10.002Z,23.11
2023-04-15T06:38:10.038Z,23.11
2023-04-15T06:39:10.041Z,23.10
2023-04-15T06:40:10.074Z,23.11
2023-04-15T06:41:10.067Z,23.12
2023-04-15T06:42:10.095Z,23.13
2023-04-15T06:43:10.134Z,23.13
2023-04-15T06:44:10.148Z,23.13
2023-04-15T06:45:10.164Z,23.13
2023-04-15T06:46:10.261Z,23.14
2023-04-15T06:47:10.227Z,23.14
2023-04-15T06:48:10.275Z,23.14
2023-04-15T06:49:10.270Z,23.15
2023-04-15T06:50:10.289Z,23.15
2023-04-15T06:51:10.329Z,23.16
2023-04-15T06:52:10.386Z,23.17
2023-04-15T06:53:10.351Z,23.17
2023-04-15T06:54:10.398Z,23.18
2023-04-15T06:55:10.381Z,23.18
2023-04-15T06:56:10.399Z,23.18
2023-04-15T06:57:10.462Z,23.18
2023-04-15T06:58:10.433Z,23.19
2023-04-15T06:59:10.465Z,23.19
2023-04-15T07:00:10.502Z,23.19
2023-04-15T07:01:10.556Z,23.20
2023-04-15T07:02:10.551Z,23.20
2023-04-15T07:03:10.563Z,23.20
2023-04-15T07:04:10.575Z,23.20
2023-04-15T07:05:10.597Z,23.21
2023-04-15T07:06:10.617Z,23.22
2023-04-15T07:07:10.611Z,23.23
2023-04-15T07:08:10.635Z,23.23
2023-04-15T07:09:10.672Z,23.23
2023-04-15T07:10:10.688Z,23.23
2023-04-15T07:11:10.706Z,23.24
2023-04-15T07:12:10.742Z,23.24
2023-04-15T07:13:10.765Z,23.25
2023-04-15T07:14:10.774Z,23.26
2023-04-15T07:15:10.818Z,23.27
2023-04-15T07:16:10.882Z,23.28
2023-04-15T07:17:10.862Z,23.27
2023-04-15T07:18:10.891Z,23.28
2023-04-15T07:19:10.915Z,23.28
2023-04-15T07:20:10.935Z,23.29
2023-04-15T07:21:10.957Z,23.30
2023-04-15T07:22:10.971Z,23.30
2023-04-15T07:23:10.995Z,23.31
2023-04-15T07:24:11.028Z,23.32
2023-04-15T07:25:11.081Z,23.32
2023-04-15T07:26:11.093Z,23.33
2023-04-15T07:27:11.100Z,23.33
2023-04-15T07:28:11.145Z,23.34
2023-04-15T07:29:11.146Z,23.35
2023-04-15T07:30:11.180Z,23.35
2023-04-15T07:31:11.288Z,23.37
2023-04-15T07:32:11.228Z,23.37
2023-04-15T07:33:11.239Z,23.38
2023-04-15T07:34:11.257Z,23.39
2023-04-15T07:35:11.274Z,23.39
2023-04-15T07:36:11.306Z,23.40
2023-04-15T07:37:11.322Z,23.41
2023-04-15T07:38:11.317Z,23.41
2023-04-15T07:39:11.338Z,23.42
2023-04-15T07:40:11.362Z,23.43
2023-04-15T07:41:11.377Z,23.43
2023-04-15T07:42:11.409Z,23.44
2023-04-15T07:43:11.425Z,23.44
2023-04-15T07:44:11.433Z,23.45
2023-04-15T07:45:11.457Z,23.45
2023-04-15T07:46:11.500Z,23.46
2023-04-15T07:47:11.497Z,23.46
2023-04-15T07:48:11.522Z,23.46
2023-04-15T07:49:11.511Z,23.46
2023-04-15T07:50:11.580Z,23.47
2023-04-15T07:51:11.523Z,23.48
2023-04-15T07:52:11.581Z,23.49
2023-04-15T07:53:11.557Z,23.49
2023-04-15T07:54:11.583Z,23.49
2023-04-15T07:55:11.576Z,23.50
2023-04-15T07:56:11.599Z,23.50
2023-04-15T07:57:11.594Z,23.52
2023-04-15T07:58:11.626Z,23.52
2023-04-15T07:59:11.650Z,23.52
2023-04-15T08:00:11.647Z,23.54
2023-04-15T08:01:11.656Z,23.54
2023-04-15T08:02:11.728Z,23.54
2023-04-15T08:03:11.811Z,23.55
2023-04-15T08:04:11.894Z,23.56
2023-04-15T08:05:11.710Z,23.57
2023-04-15T08:06:11.659Z,23.58
2023-04-15T08:07:11.662Z,23.59
2023-04-15T08:08:11.677Z,23.59
2023-04-15T08:09:11.686Z,23.60
2023-04-15T08:10:11.688Z,23.60
2023-04-15T08:11:11.670Z,23.62
2023-04-15T08:12:11.669Z,23.63
2023-04-15T08:13:11.686Z,23.63
2023-04-15T08:14:11.697Z,23.64
2023-04-15T08:15:11.702Z,23.66
2023-04-15T08:16:11.757Z,23.67
2023-04-15T08:17:11.689Z,23.67
2023-04-15T08:18:11.703Z,23.68
2023-04-15T08:19:11.705Z,23.69
2023-04-15T08:20:11.682Z,23.70
2023-04-15T08:21:11.698Z,23.71
2023-04-15T08:22:16.038Z,23.72
2023-04-15T08:23:12.685Z,23.71
2023-04-15T08:24:11.688Z,23.72
2023-04-15T08:25:11.692Z,23.72
2023-04-15T08:26:11.669Z,23.74
2023-04-15T08:27:11.670Z,23.74
2023-04-15T08:28:11.652Z,23.75
2023-04-15T08:29:11.647Z,23.75
2023-04-15T08:30:11.645Z,23.77
2023-04-15T08:31:11.646Z,23.77
2023-04-15T08:32:11.628Z,23.78
2023-04-15T08:33:11.634Z,23.80
2023-04-15T08:34:11.600Z,23.80
2023-04-15T08:35:11.607Z,23.81
2023-04-15T08:36:11.595Z,23.83
2023-04-15T08:37:12.806Z,23.84
2023-04-15T08:38:11.585Z,23.84
2023-04-15T08:39:11.593Z,23.85
2023-04-15T08:40:11.593Z,23.86
2023-04-15T08:41:11.570Z,23.87
2023-04-15T08:42:11.587Z,23.88
2023-04-15T08:43:11.630Z,23.90
2023-04-15T08:44:11.658Z,23.93
2023-04-15T08:45:11.736Z,23.95
2023-04-15T08:46:11.710Z,23.96
2023-04-15T08:47:11.754Z,23.98
2023-04-15T08:48:11.822Z,23.99
2023-04-15T08:49:11.861Z,24.02
2023-04-15T08:50:11.901Z,24.04
2023-04-15T08:51:11.994Z,24.06
2023-04-15T08:52:12.034Z,24.08
2023-04-15T08:53:12.113Z,24.09
2023-04-15T08:54:12.155Z,24.11
2023-04-15T08:55:12.225Z,24.12
2023-04-15T08:56:12.271Z,24.13
2023-04-15T08:57:12.349Z,24.14
2023-04-15T08:58:12.390Z,24.16
2023-04-15T08:59:12.463Z,24.16
2023-04-15T09:00:12.536Z,24.17
2023-04-15T09:01:12.584Z,24.19
2023-04-15T09:02:12.652Z,24.21
2023-04-15T09:03:12.774Z,24.23
2023-04-15T09:04:12.861Z,24.24
2023-04-15T09:05:12.816Z,24.24
2023-04-15T09:06:12.871Z,24.24
2023-04-15T09:07:12.915Z,24.24
2023-04-15T09:08:13.001Z,24.24
2023-04-15T09:09:13.020Z,24.25
2023-04-15T09:10:13.070Z,24.26
2023-04-15T09:11:13.118Z,24.27
2023-04-15T09:12:13.188Z,24.28
2023-04-15T09:13:13.244Z,24.29
2023-04-15T09:14:13.279Z,24.30
2023-04-15T09:15:13.355Z,24.31
2023-04-15T09:16:13.472Z,24.33
2023-04-15T09:17:13.437Z,24.35
2023-04-15T09:18:13.510Z,24.37
2023-04-15T09:19:13.553Z,24.39
2023-04-15T09:20:13.644Z,24.41
2023-04-15T09:21:13.658Z,24.42
2023-04-15T09:22:13.694Z,24.44
2023-04-15T09:23:13.723Z,24.44
2023-04-15T09:24:13.761Z,24.46
2023-04-15T09:25:13.806Z,24.46
2023-04-15T09:26:13.856Z,24.47
2023-04-15T09:27:13.898Z,24.48
2023-04-15T09:28:13.937Z,24.50
2023-04-15T09:29:13.968Z,24.52
2023-04-15T09:30:14.045Z,24.52
2023-04-15T09:31:14.093Z,24.54
2023-04-15T09:32:14.098Z,24.55
2023-04-15T09:33:14.115Z,24.58
2023-04-15T09:34:14.144Z,24.59
2023-04-15T09:35:14.177Z,24.60
2023-04-15T09:36:14.215Z,24.61
2023-04-15T09:37:28.579Z,24.64
2023-04-15T09:38:15.251Z,24.65
2023-04-15T09:39:14.234Z,24.65
2023-04-15T09:40:14.215Z,24.66
2023-04-15T09:41:14.204Z,24.67
2023-04-15T09:42:14.209Z,24.67
2023-04-15T09:43:14.228Z,24.68
2023-04-15T09:44:14.202Z,24.70
2023-04-15T09:45:14.197Z,24.72
2023-04-15T09:46:14.251Z,24.74
2023-04-15T09:47:14.175Z,24.76
2023-04-15T09:48:14.190Z,24.77
2023-04-15T09:49:14.209Z,24.79
2023-04-15T09:50:14.151Z,24.81
2023-04-15T09:51:14.174Z,24.81
2023-04-15T09:52:14.150Z,24.81
2023-04-15T09:53:14.143Z,24.83
2023-04-15T09:54:14.120Z,24.85
2023-04-15T09:55:14.131Z,24.87
2023-04-15T09:56:14.120Z,24.87
2023-04-15T09:57:14.107Z,24.88
2023-04-15T09:58:14.111Z,24.88
2023-04-15T09:59:14.108Z,24.90
2023-04-15T10:00:14.108Z,24.91
2023-04-15T10:01:14.145Z,24.91
2023-04-15T10:02:14.191Z,24.90
2023-04-15T10:03:14.270Z,24.91
2023-04-15T10:04:14.351Z,24.91
2023-04-15T10:05:14.188Z,24.90
2023-04-15T10:06:14.173Z,24.90
2023-04-15T10:07:14.208Z,24.90
2023-04-15T10:08:14.184Z,24.90
2023-04-15T10:09:14.193Z,24.90
2023-04-15T10:10:14.229Z,24.90
2023-04-15T10:11:14.221Z,24.90
2023-04-15T10:12:14.246Z,24.90
2023-04-15T10:13:14.251Z,24.90
2023-04-15T10:14:14.282Z,24.90
2023-04-15T10:15:14.265Z,24.90
2023-04-15T10:16:14.408Z,24.90
2023-04-15T10:17:14.349Z,24.89
2023-04-15T10:18:14.311Z,24.89
2023-04-15T10:19:14.312Z,24.89
2023-04-15T10:20:14.370Z,24.88
2023-04-15T10:21:14.343Z,24.89
2023-04-15T10:22:14.366Z,24.88
2023-04-15T10:23:14.365Z,24.88
2023-04-15T10:24:14.364Z,24.87
2023-04-15T10:25:14.383Z,24.87
2023-04-15T10:26:14.379Z,24.86
2023-04-15T10:27:14.422Z,24.87
2023-04-15T10:28:14.413Z,24.87
2023-04-15T10:29:14.457Z,24.86
2023-04-15T10:30:14.545Z,24.87
2023-04-15T10:31:14.510Z,24.85
2023-04-15T10:32:14.492Z,24.86
2023-04-15T10:33:14.498Z,24.85
2023-04-15T10:34:14.526Z,24.84
2023-04-15T10:35:14.549Z,24.84
2023-04-15T10:36:14.563Z,24.84
2023-04-15T10:37:14.564Z,24.83
2023-04-15T10:38:14.576Z,24.83
2023-04-15T10:39:14.609Z,24.83
2023-04-15T10:40:14.645Z,24.82
2023-04-15T10:41:14.628Z,24.82
2023-04-15T10:42:14.673Z,24.81
2023-04-15T10:43:14.682Z,24.80
2023-04-15T10:44:14.698Z,24.80
2023-04-15T10:45:14.714Z,24.79
2023-04-15T10:46:14.749Z,24.79
2023-04-15T10:47:14.728Z,24.78
2023-04-15T10:48:14.779Z,24.78
2023-04-15T10:49:14.790Z,24.78
2023-04-15T10:50:14.835Z,24.78
2023-04-15T10:51:14.831Z,24.78
2023-04-15T10:52:14.847Z,24.77
2023-04-15T10:53:14.838Z,24.77
2023-04-15T10:54:14.875Z,24.77
2023-04-15T10:55:14.893Z,24.77
2023-04-15T10:56:14.915Z,24.77
2023-04-15T10:57:14.926Z,24.76
2023-04-15T10:58:14.933Z,24.76
2023-04-15T10:59:14.985Z,24.75
2023-04-15T11:00:15.005Z,24.74
2023-04-15T11:01:15.021Z,24.74
2023-04-15T11:02:15.110Z,24.73
2023-04-15T11:03:15.184Z,24.72
2023-04-15T11:04:15.170Z,24.72
2023-04-15T11:05:15.161Z,24.70
2023-04-15T11:06:15.147Z,24.70
2023-04-15T11:07:15.175Z,24.68
2023-04-15T11:08:15.218Z,24.67
2023-04-15T11:09:15.236Z,24.68
2023-04-15T11:10:15.263Z,24.67
2023-04-15T11:11:15.283Z,24.67
2023-04-15T11:12:15.307Z,24.66
2023-04-15T11:13:15.348Z,24.66
2023-04-15T11:14:15.403Z,24.65
2023-04-15T11:15:15.399Z,24.65
2023-04-15T11:16:15.499Z,24.64
2023-04-15T11:17:15.499Z,24.63
2023-04-15T11:18:15.455Z,24.63
2023-04-15T11:19:15.500Z,24.63
2023-04-15T11:20:15.532Z,24.62
2023-04-15T11:21:15.541Z,24.62
2023-04-15T11:22:15.589Z,24.62
2023-04-15T11:23:15.992Z,24.61
2023-04-15T11:24:15.628Z,24.61
2023-04-15T11:25:15.671Z,24.61
2023-04-15T11:26:15.678Z,24.61
2023-04-15T11:27:15.721Z,24.61
2023-04-15T11:28:15.743Z,24.61
2023-04-15T11:29:15.754Z,24.62
2023-04-15T11:30:15.779Z,24.62
2023-04-15T11:31:15.879Z,24.62
2023-04-15T11:32:15.922Z,24.63
2023-04-15T11:33:15.886Z,24.63
2023-04-15T11:34:15.898Z,24.64
2023-04-15T11:35:15.925Z,24.63
2023-04-15T11:36:15.955Z,24.64
2023-04-15T11:37:15.965Z,24.64
2023-04-15T11:38:15.986Z,24.63
2023-04-15T11:39:16.016Z,24.64
2023-04-15T11:40:16.044Z,24.64
2023-04-15T11:41:16.056Z,24.64
2023-04-15T11:42:16.085Z,24.64
2023-04-15T11:43:16.106Z,24.63
2023-04-15T11:44:16.151Z,24.64
2023-04-15T11:45:16.173Z,24.63
2023-04-15T11:46:16.270Z,24.62
2023-04-15T11:47:16.221Z,24.62
2023-04-15T11:48:16.258Z,24.62
2023-04-15T11:49:16.274Z,24.60
2023-04-15T11:50:16.336Z,24.60
2023-04-15T11:51:16.309Z,24.60
2023-04-15T11:52:16.340Z,24.60
2023-04-15T11:53:16.351Z,24.60
2023-04-15T11:54:16.377Z,24.59
2023-04-15T11:55:16.419Z,24.58
2023-04-15T11:56:16.434Z,24.57
2023-04-15T11:57:16.469Z,24.57
2023-04-15T11:58:16.663Z,24.57
2023-04-15T11:59:16.508Z,24.55
2023-04-15T12:00:16.543Z,24.55
2023-04-15T12:01:16.583Z,24.54
2023-04-15T12:02:16.727Z,24.54
2023-04-15T12:03:16.915Z,24.53
2023-04-15T12:04:16.884Z,24.52
2023-04-15T12:05:16.834Z,24.51
2023-04-15T12:06:17.046Z,24.51
2023-04-15T12:07:16.748Z,24.50
2023-04-15T12:08:16.787Z,24.49
2023-04-15T12:09:16.886Z,24.49
2023-04-15T12:10:16.876Z,24.48
2023-04-15T12:11:16.883Z,24.48
2023-04-15T12:12:16.913Z,24.48
2023-04-15T12:13:16.969Z,24.49
2023-04-15T12:14:16.998Z,24.49
2023-04-15T12:15:17.069Z,24.49
2023-04-15T12:16:17.108Z,24.48
2023-04-15T12:17:17.108Z,24.48
2023-04-15T12:18:17.204Z,24.48
2023-04-15T12:19:17.190Z,24.48
2023-04-15T12:20:17.226Z,24.50
2023-04-15T12:21:17.243Z,24.50
2023-04-15T12:22:17.300Z,24.51
2023-04-15T12:23:17.322Z,24.50
2023-04-15T12:24:17.352Z,24.51
2023-04-15T12:25:17.395Z,24.51
2023-04-15T12:26:17.430Z,24.52
2023-04-15T12:27:17.512Z,24.51
2023-04-15T12:28:17.514Z,24.51
2023-04-15T12:29:17.535Z,24.51
2023-04-15T12:30:17.585Z,24.51
2023-04-15T12:31:17.614Z,24.51
2023-04-15T12:32:17.674Z,24.52
2023-04-15T12:33:17.661Z,24.51
2023-04-15T12:34:17.697Z,24.52
2023-04-15T12:35:17.733Z,24.51
2023-04-15T12:36:17.754Z,24.51
2023-04-15T12:37:17.809Z,24.51
2023-04-15T12:38:17.810Z,24.50
2023-04-15T12:39:17.860Z,24.50
2023-04-15T12:40:17.909Z,24.50
2023-04-15T12:41:17.930Z,24.49
2023-04-15T12:42:17.987Z,24.50
2023-04-15T12:43:17.989Z,24.49
2023-04-15T12:44:18.024Z,24.49
2023-04-15T12:45:18.074Z,24.48
2023-04-15T12:46:18.211Z,24.47
2023-04-15T12:47:18.198Z,24.46
2023-04-15T12:48:18.182Z,24.46
2023-04-15T12:49:18.240Z,24.45
2023-04-15T12:50:18.265Z,24.44
2023-04-15T12:51:18.313Z,24.43
2023-04-15T12:52:18.352Z,24.43